createdAt,value
2022-12-11T00:00:44.982Z,69.18
2022-12-11T00:03:15.876Z,70.88
2022-12-11T00:05:43.862Z,70.13
2022-12-11T00:08:11.088Z,65.97
2022-12-11T00:10:38.245Z,71.68
2022-12-11T00:13:04.927Z,64.68
2022-12-11T00:15:31.726Z,71.28
2022-12-11T00:17:58.239Z,68.55
2022-12-11T00:20:24.772Z,64.18
2022-12-11T00:22:51.161Z,59.22
2022-12-11T00:25:17.518Z,59.92
2022-12-11T00:27:45.905Z,65.80
2022-12-11T00:30:12.770Z,59.70
2022-12-11T00:32:39.149Z,57.70
2022-12-11T00:35:05.899Z,59.60
2022-12-11T00:37:32.351Z,58.60
2022-12-11T00:39:58.797Z,54.17
2022-12-11T00:42:25.188Z,53.45
2022-12-11T00:44:52.102Z,56.15
2022-12-11T00:47:18.478Z,55.53
2022-12-11T00:49:49.630Z,57.53
2022-12-11T00:52:17.696Z,57.35
2022-12-11T00:54:44.313Z,52.53
2022-12-11T00:57:10.685Z,50.83
2022-12-11T00:59:37.096Z,49.92
2022-12-11T01:02:03.508Z,49.08
2022-12-11T01:04:30.011Z,47.25
2022-12-11T01:06:56.487Z,55.40
2022-12-11T01:09:41.427Z,48.30
2022-12-11T01:12:07.776Z,45.38
2022-12-11T01:14:34.189Z,44.00
2022-12-11T01:17:00.629Z,43.67
2022-12-11T01:19:27.037Z,49.67
2022-12-11T01:21:53.554Z,44.67
2022-12-11T01:24:19.945Z,46.78
2022-12-11T01:26:46.310Z,46.10
2022-12-11T01:29:12.696Z,41.90
2022-12-11T01:31:39.172Z,46.47
2022-12-11T01:34:05.492Z,39.85
2022-12-11T01:36:31.857Z,48.35
2022-12-11T01:38:58.219Z,44.33
2022-12-11T01:41:24.632Z,47.13
2022-12-11T01:44:16.054Z,42.67
2022-12-11T01:46:43.092Z,45.22
2022-12-11T01:49:13.797Z,43.85
2022-12-11T01:51:48.758Z,41.55
2022-12-11T01:54:18.525Z,46.85
2022-12-11T01:56:46.466Z,41.20
2022-12-11T01:59:15.792Z,38.53
2022-12-11T02:01:54.581Z,37.83
2022-12-11T02:04:21.302Z,38.30
2022-12-11T02:06:50.618Z,38.33
2022-12-11T02:09:20.639Z,38.28
2022-12-11T02:11:55.013Z,36.58
2022-12-11T02:14:43.335Z,38.10
2022-12-11T02:17:19.451Z,38.13
2022-12-11T02:20:08.271Z,41.38
2022-12-11T02:22:51.674Z,43.55
2022-12-11T02:25:43.101Z,43.00
2022-12-11T02:28:20.976Z,40.17
2022-12-11T02:30:51.589Z,42.17
2022-12-11T02:33:23.364Z,41.35
2022-12-11T02:35:50.523Z,42.30
2022-12-11T02:38:24.341Z,37.10
2022-12-11T02:40:53.536Z,42.35
2022-12-11T02:43:22.357Z,41.80
2022-12-11T02:45:51.258Z,40.80
2022-12-11T02:48:20.296Z,42.15
2022-12-11T02:50:48.865Z,39.20
2022-12-11T02:53:19.658Z,37.20
2022-12-11T02:55:49.938Z,37.63
2022-12-11T02:58:19.542Z,34.40
2022-12-11T03:00:46.379Z,38.33
2022-12-11T03:03:13.840Z,39.05
2022-12-11T03:05:41.919Z,37.72
2022-12-11T03:08:08.400Z,35.33
2022-12-11T03:10:35.103Z,36.80
2022-12-11T03:13:02.973Z,33.40
2022-12-11T03:15:41.549Z,36.90
2022-12-11T03:18:17.627Z,33.17
2022-12-11T03:20:47.502Z,33.30
2022-12-11T03:23:35.443Z,35.65
2022-12-11T03:26:04.508Z,38.72
2022-12-11T03:28:49.234Z,34.22
2022-12-11T03:31:45.593Z,35.05
2022-12-11T03:34:41.480Z,33.33
2022-12-11T03:37:09.618Z,36.13
2022-12-11T03:39:41.141Z,33.65
2022-12-11T03:42:11.771Z,30.23
2022-12-11T03:44:38.459Z,40.40
2022-12-11T03:47:08.228Z,30.98
2022-12-11T03:49:41.812Z,33.85
2022-12-11T03:52:12.171Z,37.90
2022-12-11T03:54:40.640Z,37.03
2022-12-11T03:57:08.376Z,31.98
2022-12-11T03:59:34.818Z,37.33
2022-12-11T04:02:01.336Z,38.28
2022-12-11T04:04:28.050Z,37.08
2022-12-11T04:06:54.451Z,31.30
2022-12-11T04:09:20.812Z,36.13
2022-12-11T04:11:47.198Z,37.70
2022-12-11T04:14:33.306Z,32.22
2022-12-11T04:17:01.208Z,34.58
2022-12-11T04:19:46.235Z,34.70
2022-12-11T04:22:33.179Z,31.00
2022-12-11T04:25:00.554Z,34.25
2022-12-11T04:27:45.865Z,31.45
2022-12-11T04:30:24.662Z,30.35
2022-12-11T04:32:54.252Z,33.10
2022-12-11T04:35:21.062Z,30.33
2022-12-11T04:37:47.548Z,35.30
2022-12-11T04:40:17.260Z,33.85
2022-12-11T04:42:43.698Z,39.05
2022-12-11T04:45:11.636Z,33.28
2022-12-11T04:47:39.632Z,32.35
2022-12-11T04:50:07.748Z,31.63
2022-12-11T04:52:34.182Z,34.08
2022-12-11T04:55:00.490Z,31.92
2022-12-11T04:57:26.809Z,30.95
2022-12-11T04:59:53.141Z,35.63
2022-12-11T05:02:19.566Z,31.48
2022-12-11T05:04:46.028Z,32.10
2022-12-11T05:07:12.404Z,30.75
2022-12-11T05:09:38.783Z,31.08
2022-12-11T05:12:05.271Z,30.85
2022-12-11T05:14:32.353Z,30.50
2022-12-11T05:16:59.530Z,28.88
2022-12-11T05:19:26.767Z,30.10
2022-12-11T05:21:53.301Z,31.05
2022-12-11T05:24:19.791Z,29.77
2022-12-11T05:26:46.166Z,32.25
2022-12-11T05:29:12.551Z,29.10
2022-12-11T05:31:38.993Z,29.73
2022-12-11T05:34:05.379Z,27.35
2022-12-11T05:36:33.670Z,28.63
2022-12-11T05:39:01.137Z,27.30
2022-12-11T05:41:29.469Z,27.52
2022-12-11T05:43:56.144Z,26.55
2022-12-11T05:46:25.332Z,26.38
2022-12-11T05:48:54.837Z,26.58
2022-12-11T05:51:21.359Z,26.17
2022-12-11T05:53:49.546Z,25.17
2022-12-11T05:56:19.633Z,25.85
2022-12-11T05:58:47.642Z,24.75
2022-12-11T06:01:26.390Z,25.40
2022-12-11T06:03:54.124Z,24.70
2022-12-11T06:06:21.014Z,28.23
2022-12-11T06:08:51.153Z,22.55
2022-12-11T06:11:23.571Z,22.00
2022-12-11T06:13:50.469Z,20.00
2022-12-11T06:16:16.807Z,22.80
2022-12-11T06:18:44.792Z,20.67
2022-12-11T06:21:15.768Z,20.77
2022-12-11T06:23:43.121Z,21.00
2022-12-11T06:26:10.653Z,19.60
2022-12-11T06:28:37.602Z,23.85
2022-12-11T06:31:05.225Z,20.23
2022-12-11T06:33:31.936Z,20.67
2022-12-11T06:36:05.582Z,19.48
2022-12-11T06:38:32.213Z,20.20
2022-12-11T06:41:00.933Z,19.65
2022-12-11T06:43:27.246Z,21.23
2022-12-11T06:45:54.509Z,21.35
2022-12-11T06:48:23.547Z,20.30
2022-12-11T06:50:49.941Z,18.30
2022-12-11T06:53:17.821Z,19.00
2022-12-11T06:55:44.239Z,20.10
2022-12-11T06:58:11.456Z,18.27
2022-12-11T07:00:38.921Z,19.00
2022-12-11T07:03:05.673Z,21.45
2022-12-11T07:05:32.797Z,19.67
2022-12-11T07:07:59.616Z,20.17
2022-12-11T07:10:26.230Z,19.42
2022-12-11T07:12:53.505Z,19.83
2022-12-11T07:15:19.990Z,18.88
2022-12-11T07:17:46.710Z,20.42
2022-12-11T07:20:13.084Z,18.45
2022-12-11T07:22:45.997Z,18.70
2022-12-11T07:25:13.243Z,18.63
2022-12-11T07:27:39.805Z,22.02
2022-12-11T07:30:06.709Z,20.05
2022-12-11T07:32:33.365Z,19.38
2022-12-11T07:34:59.800Z,19.15
2022-12-11T07:37:26.119Z,21.75
2022-12-11T07:39:52.537Z,19.42
2022-12-11T07:42:18.924Z,18.63
2022-12-11T07:44:45.354Z,18.63
2022-12-11T07:47:11.690Z,20.25
2022-12-11T07:49:38.283Z,19.25
2022-12-11T07:52:04.783Z,17.42
2022-12-11T07:54:35.362Z,19.60
2022-12-11T07:57:17.814Z,18.08
2022-12-11T07:59:46.479Z,18.92
2022-12-11T08:02:15.198Z,18.48
2022-12-11T08:04:41.641Z,18.27
2022-12-11T08:07:12.630Z,17.65
2022-12-11T08:09:39.042Z,19.15
2022-12-11T08:12:05.794Z,16.75
2022-12-11T08:14:32.136Z,16.65
2022-12-11T08:17:00.124Z,16.25
2022-12-11T08:19:26.585Z,16.65
2022-12-11T08:21:52.953Z,15.07
2022-12-11T08:24:20.860Z,15.20
2022-12-11T08:26:48.082Z,15.02
2022-12-11T08:29:14.957Z,14.45
2022-12-11T08:31:41.912Z,13.88
2022-12-11T08:34:08.308Z,14.45
2022-12-11T08:36:34.789Z,14.73
2022-12-11T08:39:01.160Z,14.45
2022-12-11T08:41:30.132Z,14.68
2022-12-11T08:43:58.450Z,15.35
2022-12-11T08:46:27.413Z,14.85
2022-12-11T08:48:55.066Z,14.88
2022-12-11T08:51:24.609Z,14.02
2022-12-11T08:54:01.382Z,13.40
2022-12-11T08:56:29.135Z,12.90
2022-12-11T08:58:55.905Z,13.00
2022-12-11T09:01:25.008Z,14.18
2022-12-11T09:03:52.683Z,14.30
2022-12-11T09:06:21.060Z,14.82
2022-12-11T09:08:52.520Z,14.63
2022-12-11T09:11:25.756Z,14.75
2022-12-11T09:13:53.983Z,14.45
2022-12-11T09:16:23.195Z,15.25
2022-12-11T09:18:51.474Z,14.68
2022-12-11T09:21:20.469Z,15.95
2022-12-11T09:23:47.324Z,14.13
2022-12-11T09:26:16.597Z,18.52
2022-12-11T09:28:46.720Z,16.88
2022-12-11T09:31:16.965Z,17.45
2022-12-11T09:33:44.125Z,17.23
2022-12-11T09:36:12.047Z,17.45
2022-12-11T09:38:39.553Z,18.58
2022-12-11T09:41:21.385Z,17.20
2022-12-11T09:44:02.839Z,16.35
2022-12-11T09:46:34.017Z,16.77
2022-12-11T09:49:04.539Z,15.95
2022-12-11T09:51:39.916Z,15.40
2022-12-11T09:54:06.528Z,13.57
2022-12-11T09:56:39.192Z,14.48
2022-12-11T09:59:16.973Z,16.83
2022-12-11T10:01:53.879Z,16.73
2022-12-11T10:04:39.133Z,19.00
2022-12-11T10:07:30.259Z,19.58
2022-12-11T10:09:56.601Z,18.98
2022-12-11T10:12:29.275Z,19.50
2022-12-11T10:15:10.646Z,19.75
2022-12-11T10:17:38.906Z,19.58
2022-12-11T10:20:28.693Z,20.48
2022-12-11T10:22:56.931Z,19.23
2022-12-11T10:25:34.299Z,19.92
2022-12-11T10:28:11.466Z,20.80
2022-12-11T10:30:40.886Z,20.77
2022-12-11T10:33:22.676Z,18.90
2022-12-11T10:35:54.804Z,19.30
2022-12-11T10:38:38.252Z,18.25
2022-12-11T10:41:11.221Z,18.98
2022-12-11T10:43:40.276Z,19.55
2022-12-11T10:46:18.086Z,18.98
2022-12-11T10:48:53.751Z,20.60
2022-12-11T10:51:24.449Z,17.10
2022-12-11T10:54:02.600Z,18.25
2022-12-11T10:56:34.035Z,18.33
2022-12-11T10:59:01.248Z,18.50
2022-12-11T11:01:29.796Z,18.45
2022-12-11T11:04:21.135Z,17.67
2022-12-11T11:06:48.863Z,18.45
2022-12-11T11:09:35.510Z,19.77
2022-12-11T11:12:07.592Z,19.83
2022-12-11T11:14:34.486Z,17.70
2022-12-11T11:17:01.351Z,18.58
2022-12-11T11:19:32.294Z,19.02
2022-12-11T11:22:14.200Z,17.88
2022-12-11T11:24:44.672Z,17.95
2022-12-11T11:27:26.999Z,17.77
2022-12-11T11:29:59.556Z,16.63
2022-12-11T11:32:33.135Z,16.42
2022-12-11T11:35:26.549Z,19.02
2022-12-11T11:38:19.075Z,15.52
2022-12-11T11:41:06.619Z,14.98
2022-12-11T11:43:55.585Z,15.55
2022-12-11T11:46:36.579Z,14.25
2022-12-11T11:49:24.850Z,15.35
2022-12-11T11:52:01.575Z,16.45
2022-12-11T11:54:55.341Z,16.70
2022-12-11T11:57:42.410Z,16.77
2022-12-11T12:00:30.220Z,15.45
2022-12-11T12:03:03.444Z,14.90
2022-12-11T12:05:45.054Z,15.80
2022-12-11T12:08:33.752Z,13.05
2022-12-11T12:11:41.762Z,13.13
2022-12-11T12:17:23.324Z,13.15
2022-12-11T12:19:57.174Z,12.05
2022-12-11T12:22:57.310Z,12.38
2022-12-11T12:25:28.552Z,13.50
2022-12-11T12:28:16.145Z,13.38
2022-12-11T12:30:59.734Z,13.55
2022-12-11T12:33:48.331Z,12.63
2022-12-11T12:36:24.412Z,12.23
2022-12-11T12:39:02.012Z,12.95
2022-12-11T12:41:54.674Z,12.52
2022-12-11T12:44:23.785Z,12.65
2022-12-11T12:47:15.075Z,12.73
2022-12-11T12:49:48.666Z,13.63
2022-12-11T12:52:21.795Z,13.63
2022-12-11T12:55:12.433Z,13.67
2022-12-11T12:57:41.879Z,12.95
2022-12-11T13:00:14.818Z,15.05
2022-12-11T13:02:50.238Z,14.07
2022-12-11T13:05:25.350Z,14.18
2022-12-11T13:07:58.063Z,14.32
2022-12-11T13:10:28.563Z,15.65
2022-12-11T13:12:55.167Z,15.40
2022-12-11T13:15:38.915Z,13.43
2022-12-11T13:18:33.930Z,13.10
2022-12-11T13:21:00.920Z,13.23
2022-12-11T13:23:33.912Z,12.73
2022-12-11T13:26:03.192Z,11.85
2022-12-11T13:28:38.736Z,13.95
2022-12-11T13:31:25.509Z,13.48
2022-12-11T13:33:54.637Z,13.20
2022-12-11T13:36:24.509Z,12.95
2022-12-11T13:38:55.376Z,12.80
2022-12-11T13:41:22.408Z,14.02
2022-12-11T13:43:50.302Z,13.98
2022-12-11T13:46:24.511Z,13.93
2022-12-11T13:49:03.561Z,14.60
2022-12-11T13:51:32.344Z,12.82
2022-12-11T13:54:17.626Z,13.90
2022-12-11T13:57:13.247Z,14.70
2022-12-11T13:59:46.488Z,14.40
2022-12-11T14:02:22.553Z,15.02
2022-12-11T14:04:51.577Z,15.50
2022-12-11T14:07:26.094Z,15.18
2022-12-11T14:09:56.899Z,15.98
2022-12-11T14:12:23.312Z,15.23
2022-12-11T14:15:01.974Z,15.80
2022-12-11T14:17:32.118Z,14.60
2022-12-11T14:20:01.979Z,15.75
2022-12-11T14:22:30.422Z,14.70
2022-12-11T14:25:05.307Z,15.80
2022-12-11T14:27:31.737Z,14.32
2022-12-11T14:29:58.467Z,14.65
2022-12-11T14:32:43.421Z,14.95
2022-12-11T14:35:24.693Z,14.90
2022-12-11T14:37:52.917Z,15.15
2022-12-11T14:40:25.253Z,15.90
2022-12-11T14:43:04.221Z,17.13
2022-12-11T14:45:40.575Z,17.52
2022-12-11T14:48:20.489Z,15.98
2022-12-11T14:50:52.405Z,15.43
2022-12-11T14:53:25.750Z,16.77
2022-12-11T14:55:53.221Z,16.80
2022-12-11T14:58:27.113Z,15.10
2022-12-11T15:01:28.162Z,15.57
2022-12-11T15:04:16.480Z,15.73
2022-12-11T15:06:45.853Z,14.48
2022-12-11T15:09:27.699Z,16.20
2022-12-11T15:11:57.200Z,15.35
2022-12-11T15:14:25.573Z,16.10
2022-12-11T15:16:56.054Z,16.65
2022-12-11T15:19:28.725Z,16.02
2022-12-11T15:21:55.458Z,16.95
2022-12-11T15:24:35.239Z,15.68
2022-12-11T15:27:01.731Z,17.58
2022-12-11T15:29:38.421Z,18.02
2022-12-11T15:32:04.730Z,17.73
2022-12-11T15:34:50.688Z,18.25
2022-12-11T15:37:23.182Z,16.90
2022-12-11T15:39:50.268Z,16.35
2022-12-11T15:42:24.892Z,16.30
2022-12-11T15:44:51.709Z,17.02
2022-12-11T15:47:24.756Z,16.65
2022-12-11T15:49:55.669Z,18.13
2022-12-11T15:52:22.094Z,17.42
2022-12-11T15:54:48.416Z,16.83
2022-12-11T15:57:19.155Z,16.75
2022-12-11T15:59:48.629Z,17.13
2022-12-11T16:02:15.450Z,17.02
2022-12-11T16:04:41.835Z,16.00
2022-12-11T16:07:17.608Z,16.20
2022-12-11T16:09:45.079Z,16.42
2022-12-11T16:12:11.896Z,17.50
2022-12-11T16:14:39.131Z,16.05
2022-12-11T16:17:07.193Z,16.85
2022-12-11T16:19:34.510Z,17.15
2022-12-11T16:22:01.009Z,15.85
2022-12-11T16:24:27.908Z,14.63
2022-12-11T16:26:56.115Z,15.85
2022-12-11T16:29:22.957Z,16.60
2022-12-11T16:31:49.425Z,16.30
2022-12-11T16:34:16.226Z,16.40
2022-12-11T16:36:42.750Z,16.17
2022-12-11T16:39:12.049Z,16.88
2022-12-11T16:41:38.786Z,16.63
2022-12-11T16:44:05.601Z,18.60
2022-12-11T16:46:32.322Z,18.33
2022-12-11T16:48:58.807Z,16.63
2022-12-11T16:51:25.213Z,16.02
2022-12-11T16:53:51.819Z,15.70
2022-12-11T16:56:18.264Z,16.35
2022-12-11T16:58:44.630Z,15.82
2022-12-11T17:01:15.490Z,16.70
2022-12-11T17:03:43.436Z,16.35
2022-12-11T17:06:12.016Z,16.75
2022-12-11T17:08:39.342Z,17.35
2022-12-11T17:11:07.597Z,16.17
2022-12-11T17:13:36.355Z,17.45
2022-12-11T17:16:08.397Z,16.58
2022-12-11T17:18:35.311Z,17.20
2022-12-11T17:21:10.144Z,19.27
2022-12-11T17:23:36.676Z,24.40
2022-12-11T17:26:04.477Z,17.70
2022-12-11T17:28:31.524Z,15.90
2022-12-11T17:30:58.249Z,16.75
2022-12-11T17:33:26.324Z,16.15
2022-12-11T17:35:52.738Z,17.05
2022-12-11T17:38:19.118Z,14.63
2022-12-11T17:40:45.899Z,17.02
2022-12-11T17:43:12.538Z,15.85
2022-12-11T17:45:43.478Z,14.52
2022-12-11T17:48:10.262Z,16.45
2022-12-11T17:50:41.564Z,17.73
2022-12-11T17:53:09.331Z,21.05
2022-12-11T17:55:38.086Z,18.20
2022-12-11T17:58:05.445Z,22.08
2022-12-11T18:00:33.536Z,18.70
2022-12-11T18:02:59.955Z,17.13
2022-12-11T18:05:26.299Z,17.00
2022-12-11T18:07:57.527Z,17.15
2022-12-11T18:10:24.942Z,18.17
2022-12-11T18:12:51.351Z,17.75
2022-12-11T18:15:20.554Z,18.88
2022-12-11T18:17:47.130Z,18.05
2022-12-11T18:20:16.626Z,16.75
2022-12-11T18:22:43.467Z,18.80
2022-12-11T18:25:11.972Z,19.90
2022-12-11T18:27:38.891Z,17.73
2022-12-11T18:30:05.939Z,18.15
2022-12-11T18:32:35.196Z,18.92
2022-12-11T18:35:02.499Z,17.58
2022-12-11T18:37:28.825Z,20.08
2022-12-11T18:39:55.158Z,19.92
2022-12-11T18:42:32.864Z,20.67
2022-12-11T18:44:59.762Z,19.33
2022-12-11T18:47:26.242Z,21.05
2022-12-11T18:49:52.590Z,21.05
2022-12-11T18:52:18.913Z,21.73
2022-12-11T18:54:45.714Z,23.30
2022-12-11T18:57:12.037Z,20.27
2022-12-11T18:59:38.893Z,22.50
2022-12-11T19:02:05.428Z,18.60
2022-12-11T19:04:32.628Z,24.33
2022-12-11T19:07:00.695Z,22.02
2022-12-11T19:09:27.282Z,23.83
2022-12-11T19:11:53.751Z,21.17
2022-12-11T19:14:20.209Z,23.88
2022-12-11T19:16:46.568Z,21.05
2022-12-11T19:19:18.268Z,21.65
2022-12-11T19:21:46.031Z,20.27
2022-12-11T19:24:19.083Z,21.02
2022-12-11T19:26:45.696Z,23.50
2022-12-11T19:29:21.236Z,21.00
2022-12-11T19:31:47.951Z,22.40
2022-12-11T19:34:15.245Z,21.55
2022-12-11T19:36:46.520Z,23.13
2022-12-11T19:39:14.327Z,21.15
2022-12-11T19:41:41.400Z,20.85
2022-12-11T19:44:08.364Z,21.48
2022-12-11T19:46:35.444Z,20.65
2022-12-11T19:49:02.153Z,22.27
2022-12-11T19:51:34.217Z,20.65
2022-12-11T19:54:04.454Z,21.98
2022-12-11T19:56:31.644Z,21.50
2022-12-11T19:58:58.748Z,20.65
2022-12-11T20:01:30.056Z,23.83
2022-12-11T20:04:03.075Z,20.90
2022-12-11T20:06:34.463Z,22.60
2022-12-11T20:09:01.888Z,23.27
2022-12-11T20:11:34.888Z,22.45
2022-12-11T20:14:01.248Z,22.02
2022-12-11T20:16:53.867Z,24.35
2022-12-11T20:19:14.660Z,21.70
2022-12-11T20:21:42.088Z,24.67
2022-12-11T20:24:09.358Z,24.35
2022-12-11T20:26:37.962Z,24.05
2022-12-11T20:29:07.236Z,22.05
2022-12-11T20:31:34.013Z,25.25
2022-12-11T20:34:00.407Z,23.23
2022-12-11T20:36:26.808Z,23.77
2022-12-11T20:38:53.335Z,24.70
2022-12-11T20:41:22.304Z,26.23
2022-12-11T20:43:49.938Z,24.77
2022-12-11T20:46:20.876Z,22.80
2022-12-11T20:48:47.899Z,24.75
2022-12-11T20:51:19.669Z,26.67
2022-12-11T20:53:57.341Z,24.17
2022-12-11T20:56:25.659Z,26.65
2022-12-11T20:58:52.171Z,25.13
2022-12-11T21:01:22.445Z,24.60
2022-12-11T21:03:49.335Z,24.65
2022-12-11T21:06:26.276Z,23.38
2022-12-11T21:08:53.615Z,23.83
2022-12-11T21:11:20.476Z,24.00
2022-12-11T21:13:46.917Z,24.08
2022-12-11T21:16:13.365Z,22.60
2022-12-11T21:18:39.831Z,24.42
2022-12-11T21:21:06.504Z,24.92
2022-12-11T21:23:33.685Z,24.27
2022-12-11T21:26:00.569Z,24.73
2022-12-11T21:28:30.560Z,24.05
2022-12-11T21:31:11.137Z,18.83
2022-12-11T21:33:37.584Z,25.08
2022-12-11T21:36:06.151Z,23.33
2022-12-11T21:38:33.244Z,23.48
2022-12-11T21:41:10.410Z,24.23
2022-12-11T21:43:42.787Z,24.00
2022-12-11T21:46:25.386Z,22.65
2022-12-11T21:48:52.152Z,24.63
2022-12-11T21:51:24.794Z,23.63
2022-12-11T21:53:51.849Z,21.05
2022-12-11T21:56:20.447Z,23.05
2022-12-11T21:58:48.370Z,27.73
2022-12-11T22:01:40.713Z,29.85
2022-12-11T22:04:08.199Z,26.85
2022-12-11T22:06:35.198Z,32.08
2022-12-11T22:09:01.871Z,29.38
2022-12-11T22:11:31.110Z,28.45
2022-12-11T22:13:57.954Z,27.15
2022-12-11T22:16:24.632Z,27.38
2022-12-11T22:18:51.014Z,45.53
2022-12-11T22:21:17.525Z,33.95
2022-12-11T22:23:44.704Z,32.83
2022-12-11T22:26:17.830Z,30.00
2022-12-11T22:28:44.135Z,30.77
2022-12-11T22:31:12.585Z,28.73
2022-12-11T22:33:39.280Z,27.95
2022-12-11T22:36:06.408Z,30.40
2022-12-11T22:38:34.623Z,25.90
2022-12-11T22:41:27.633Z,25.25
2022-12-11T22:43:54.798Z,25.50
2022-12-11T22:46:24.593Z,33.08
2022-12-11T22:48:51.649Z,25.30
2022-12-11T22:51:18.224Z,26.30
2022-12-11T22:53:44.723Z,26.27
2022-12-11T22:56:13.216Z,29.35
2022-12-11T22:58:40.419Z,29.00
2022-12-11T23:01:12.255Z,30.15
2022-12-11T23:03:39.056Z,25.92
2022-12-11T23:06:07.963Z,26.75
2022-12-11T23:08:35.163Z,27.13
2022-12-11T23:11:02.370Z,28.58
2022-12-11T23:13:28.952Z,27.33
2022-12-11T23:15:55.309Z,26.45
2022-12-11T23:18:21.635Z,31.52
2022-12-11T23:20:49.271Z,35.97
2022-12-11T23:23:15.668Z,32.45
2022-12-11T23:25:42.090Z,31.30
2022-12-11T23:28:08.431Z,32.17
2022-12-11T23:30:35.109Z,34.60
2022-12-11T23:33:01.507Z,33.80
2022-12-11T23:35:27.867Z,32.63
2022-12-11T23:37:54.241Z,36.42
2022-12-11T23:40:20.560Z,32.80
2022-12-11T23:42:46.949Z,34.72
2022-12-11T23:45:13.519Z,33.58
2022-12-11T23:47:43.164Z,32.13
2022-12-11T23:50:09.878Z,29.25
2022-12-11T23:52:36.256Z,33.40
2022-12-11T23:55:02.733Z,26.23
2022-12-11T23:57:29.147Z,28.92
2022-12-11T23:59:55.443Z,27.48
